Airfield :
LOGIN :

Register | Disclaimer

   EN    FR    IT 

 










Legend :    VFR   Marginal VFR   IFR   Intensive IFR   Very Intensive IFR
Visi :
Ceiling :
>= 8 km
>= 3000ft
5 to 8 km
1000 to 3000 ft
1500m to 5 km
500 to 1000 ft
800 to 1500m
200 to 500 ft
< 800m
< 200 ft
Symbols :   Thunderstorms  Fog  Heavy snow  Heavy precipitations  Wind > 20 kt
SIGMETs :     Misc.  Thunderstorms  Icing  Turbulence  Mountain Waves  Volcanic Ashes






- Airport Elevation : 112 ft
- IATA code : SVQ


LEZL - Sevilla San Pablo

CURRENT METAR :
  • 162100Z 30006KT 280V340 CAVOK 28/09 Q1010 NOSIG

EXPIRED METARs :
  • 162030Z 31007KT CAVOK 28/09 Q1010 NOSIG
  • 162000Z 30009KT 290V350 CAVOK 29/11 Q1009 NOSIG
  • 161930Z 31009KT CAVOK 30/12 Q1009 NOSIG
  • 161900Z 30012KT CAVOK 31/12 Q1008 NOSIG
  • 161830Z 28017KT CAVOK 32/12 Q1008 NOSIG

TAF TAF LEZL
Valid from the 16 at 21:00 until the 17 at 21:00 UTC


162000Z 1621/1721 32006KT CAVOK TX34/1715Z TN19/1705Z
BECMG 1714/1717 21011KT



MET'MAP, your aeronautical weather chart ! - Copyright ORBIFLY December 2007 - Disclaimer

ORBIFLY MET'MAP TEAM :

Programming & Development : Alexandra Zaïnal
Original concept : Baudouin d'Aumeries
Technical & hardware support : Manuel Goepfert
Assistance : Marc-Olivier Méhu




SOURCES & CREDITS :

   NOAA